sensor_id;sensor_type;location;lat;lon;timestamp;pressure;altitude;pressure_sealevel;temperature;humidity
22047;BME280;11187;49.412;20.956;2023-12-20T00:02:24;94785.13;;;-0.83;100.00
22047;BME280;11187;49.412;20.956;2023-12-20T00:05:11;94784.25;;;-0.85;100.00
22047;BME280;11187;49.412;20.956;2023-12-20T00:07:45;94780.88;;;-0.86;100.00
22047;BME280;11187;49.412;20.956;2023-12-20T00:10:31;94770.75;;;-0.89;100.00
22047;BME280;11187;49.412;20.956;2023-12-20T00:13:11;94773.19;;;-0.93;100.00
22047;BME280;11187;49.412;20.956;2023-12-20T00:15:51;94764.84;;;-0.92;100.00
22047;BME280;11187;49.412;20.956;2023-12-20T00:18:32;94761.53;;;-0.90;100.00
22047;BME280;11187;49.412;20.956;2023-12-20T00:21:18;94769.06;;;-0.90;100.00
22047;BME280;11187;49.412;20.956;2023-12-20T00:23:59;94761.53;;;-0.90;100.00
22047;BME280;11187;49.412;20.956;2023-12-20T00:26:38;94746.47;;;-0.90;100.00
22047;BME280;11187;49.412;20.956;2023-12-20T00:29:19;94764.94;;;-0.88;100.00
22047;BME280;11187;49.412;20.956;2023-12-20T00:32:06;94753.25;;;-0.86;100.00
22047;BME280;11187;49.412;20.956;2023-12-20T00:34:39;94753.28;;;-0.84;100.00
22047;BME280;11187;49.412;20.956;2023-12-20T00:37:25;94744.88;;;-0.86;100.00
22047;BME280;11187;49.412;20.956;2023-12-20T00:40:06;94744.03;;;-0.85;100.00
22047;BME280;11187;49.412;20.956;2023-12-20T00:42:59;94744.06;;;-0.83;100.00
22047;BME280;11187;49.412;20.956;2023-12-20T00:45:57;94736.53;;;-0.83;100.00
22047;BME280;11187;49.412;20.956;2023-12-20T00:48:30;94722.28;;;-0.83;100.00
22047;BME280;11187;49.412;20.956;2023-12-20T00:51:16;94718.09;;;-0.82;100.00
22047;BME280;11187;49.412;20.956;2023-12-20T00:53:53;94717.28;;;-0.83;100.00
22047;BME280;11187;49.412;20.956;2023-12-20T00:56:41;94721.47;;;-0.82;100.00
22047;BME280;11187;49.412;20.956;2023-12-20T00:59:16;94716.44;;;-0.82;100.00
22047;BME280;11187;49.412;20.956;2023-12-20T01:02:12;94718.94;;;-0.82;100.00
22047;BME280;11187;49.412;20.956;2023-12-20T01:04:46;94705.59;;;-0.81;100.00
22047;BME280;11187;49.412;20.956;2023-12-20T01:07:39;94705.53;;;-0.82;100.00
22047;BME280;11187;49.412;20.956;2023-12-20T01:10:13;94694.66;;;-0.83;100.00
22047;BME280;11187;49.412;20.956;2023-12-20T01:13:08;94697.97;;;-0.86;100.00
22047;BME280;11187;49.412;20.956;2023-12-20T01:16:03;94697.03;;;-0.91;100.00
22047;BME280;11187;49.412;20.956;2023-12-20T01:18:37;94694.44;;;-0.94;100.00
22047;BME280;11187;49.412;20.956;2023-12-20T01:21:23;94701.13;;;-0.94;100.00
22047;BME280;11187;49.412;20.956;2023-12-20T01:23:57;94696.03;;;-0.99;100.00
22047;BME280;11187;49.412;20.956;2023-12-20T01:26:43;94683.44;;;-1.00;100.00
22047;BME280;11187;49.412;20.956;2023-12-20T01:29:17;94685.84;;;-1.05;100.00
22047;BME280;11187;49.412;20.956;2023-12-20T01:32:04;94697.56;;;-1.06;100.00
22047;BME280;11187;49.412;20.956;2023-12-20T01:34:37;94700.94;;;-1.05;100.00
22047;BME280;11187;49.412;20.956;2023-12-20T01:37:23;94695.03;;;-1.07;100.00
22047;BME280;11187;49.412;20.956;2023-12-20T01:39:58;94677.44;;;-1.09;100.00
22047;BME280;11187;49.412;20.956;2023-12-20T01:42:44;94678.22;;;-1.10;100.00
22047;BME280;11187;49.412;20.956;2023-12-20T01:45:18;94669.91;;;-1.09;100.00
22047;BME280;11187;49.412;20.956;2023-12-20T01:48:05;94663.16;;;-1.10;100.00
22047;BME280;11187;49.412;20.956;2023-12-20T01:50:39;94662.31;;;-1.10;100.00
22047;BME280;11187;49.412;20.956;2023-12-20T01:53:27;94651.44;;;-1.11;100.00
22047;BME280;11187;49.412;20.956;2023-12-20T01:56:01;94634.66;;;-1.13;100.00
22047;BME280;11187;49.412;20.956;2023-12-20T01:58:48;94619.50;;;-1.16;100.00
22047;BME280;11187;49.412;20.956;2023-12-20T02:01:22;94621.97;;;-1.19;100.00
22047;BME280;11187;49.412;20.956;2023-12-20T02:04:09;94616.09;;;-1.20;100.00
22047;BME280;11187;49.412;20.956;2023-12-20T02:06:43;94608.53;;;-1.21;100.00
22047;BME280;11187;49.412;20.956;2023-12-20T02:09:38;94601.84;;;-1.21;100.00
22047;BME280;11187;49.412;20.956;2023-12-20T02:12:31;94595.09;;;-1.23;100.00
22047;BME280;11187;49.412;20.956;2023-12-20T02:15:12;94599.25;;;-1.26;100.00
22047;BME280;11187;49.412;20.956;2023-12-20T02:17:54;94592.50;;;-1.28;100.00
22047;BME280;11187;49.412;20.956;2023-12-20T02:20:35;94575.75;;;-1.28;100.00
22047;BME280;11187;49.412;20.956;2023-12-20T02:23:14;94575.75;;;-1.28;100.00
22047;BME280;11187;49.412;20.956;2023-12-20T02:25:55;94579.91;;;-1.31;100.00
22047;BME280;11187;49.412;20.956;2023-12-20T02:28:34;94582.41;;;-1.30;100.00
22047;BME280;11187;49.412;20.956;2023-12-20T02:31:15;94574.03;;;-1.30;100.00
22047;BME280;11187;49.412;20.956;2023-12-20T02:33:55;94573.25;;;-1.29;100.00
22047;BME280;11187;49.412;20.956;2023-12-20T02:36:36;94572.31;;;-1.33;100.00
22047;BME280;11187;49.412;20.956;2023-12-20T02:39:22;94571.41;;;-1.38;100.00
22047;BME280;11187;49.412;20.956;2023-12-20T02:42:03;94567.19;;;-1.39;100.00
22047;BME280;11187;49.412;20.956;2023-12-20T02:44:52;94568.81;;;-1.41;100.00
22047;BME280;11187;49.412;20.956;2023-12-20T02:47:33;94568.06;;;-1.38;100.00
22047;BME280;11187;49.412;20.956;2023-12-20T02:50:20;94567.19;;;-1.39;100.00
22047;BME280;11187;49.412;20.956;2023-12-20T02:52:54;94561.31;;;-1.39;100.00
22047;BME280;11187;49.412;20.956;2023-12-20T02:55:40;94562.16;;;-1.40;100.00
22047;BME280;11187;49.412;20.956;2023-12-20T02:58:35;94562.16;;;-1.40;100.00
22047;BME280;11187;49.412;20.956;2023-12-20T03:01:08;94559.66;;;-1.40;100.00
22047;BME280;11187;49.412;20.956;2023-12-20T03:03:54;94554.53;;;-1.45;100.00
22047;BME280;11187;49.412;20.956;2023-12-20T03:06:28;94553.66;;;-1.47;100.00
22047;BME280;11187;49.412;20.956;2023-12-20T03:09:14;94553.63;;;-1.49;100.00
22047;BME280;11187;49.412;20.956;2023-12-20T03:11:48;94552.78;;;-1.49;100.00
22047;BME280;11187;49.412;20.956;2023-12-20T03:14:34;94544.41;;;-1.48;100.00
22047;BME280;11187;49.412;20.956;2023-12-20T03:17:08;94546.94;;;-1.50;100.00
22047;BME280;11187;49.412;20.956;2023-12-20T03:19:54;94535.22;;;-1.49;100.00
22047;BME280;11187;49.412;20.956;2023-12-20T03:22:28;94546.13;;;-1.47;100.00
22047;BME280;11187;49.412;20.956;2023-12-20T03:25:14;94531.06;;;-1.45;100.00
22047;BME280;11187;49.412;20.956;2023-12-20T03:27:48;94541.16;;;-1.44;100.00
22047;BME280;11187;49.412;20.956;2023-12-20T03:30:34;94548.72;;;-1.41;100.00
22047;BME280;11187;49.412;20.956;2023-12-20T03:33:08;94542.94;;;-1.37;100.00
22047;BME280;11187;49.412;20.956;2023-12-20T03:35:54;94537.16;;;-1.33;100.00
22047;BME280;11187;49.412;20.956;2023-12-20T03:38:28;94541.38;;;-1.32;100.00
22047;BME280;11187;49.412;20.956;2023-12-20T03:41:14;94540.53;;;-1.32;100.00
22047;BME280;11187;49.412;20.956;2023-12-20T03:43:48;94535.53;;;-1.31;100.00
22047;BME280;11187;49.412;20.956;2023-12-20T03:46:34;94548.94;;;-1.30;100.00
22047;BME280;11187;49.412;20.956;2023-12-20T03:49:08;94559.78;;;-1.33;100.00
22047;BME280;11187;49.412;20.956;2023-12-20T03:51:54;94548.09;;;-1.31;100.00
22047;BME280;11187;49.412;20.956;2023-12-20T03:54:28;94558.19;;;-1.29;100.00
22047;BME280;11187;49.412;20.956;2023-12-20T03:57:16;94558.13;;;-1.31;100.00
22047;BME280;11187;49.412;20.956;2023-12-20T03:59:50;94543.00;;;-1.35;100.00
22047;BME280;11187;49.412;20.956;2023-12-20T04:02:40;94542.06;;;-1.39;100.00
22047;BME280;11187;49.412;20.956;2023-12-20T04:05:14;94543.69;;;-1.42;100.00
22047;BME280;11187;49.412;20.956;2023-12-20T04:08:01;94535.34;;;-1.41;100.00
22047;BME280;11187;49.412;20.956;2023-12-20T04:10:35;94528.66;;;-1.41;100.00
22047;BME280;11187;49.412;20.956;2023-12-20T04:13:31;94554.66;;;-1.37;100.00
22047;BME280;11187;49.412;20.956;2023-12-20T04:16:12;94545.50;;;-1.35;100.00
22047;BME280;11187;49.412;20.956;2023-12-20T04:18:51;94546.31;;;-1.36;100.00
22047;BME280;11187;49.412;20.956;2023-12-20T04:21:32;94552.16;;;-1.37;100.00
22047;BME280;11187;49.412;20.956;2023-12-20T04:24:11;94553.00;;;-1.37;100.00
22047;BME280;11187;49.412;20.956;2023-12-20T04:26:52;94530.41;;;-1.38;100.00
22047;BME280;11187;49.412;20.956;2023-12-20T04:29:31;94532.03;;;-1.39;100.00
22047;BME280;11187;49.412;20.956;2023-12-20T04:32:25;94532.88;;;-1.40;100.00
22047;BME280;11187;49.412;20.956;2023-12-20T04:35:19;94530.31;;;-1.41;100.00
22047;BME280;11187;49.412;20.956;2023-12-20T04:38:13;94534.47;;;-1.43;100.00
22047;BME280;11187;49.412;20.956;2023-12-20T04:41:07;94548.72;;;-1.42;100.00
22047;BME280;11187;49.412;20.956;2023-12-20T04:43:41;94543.69;;;-1.42;100.00
22047;BME280;11187;49.412;20.956;2023-12-20T04:46:37;94532.81;;;-1.43;100.00
22047;BME280;11187;49.412;20.956;2023-12-20T04:49:31;94524.41;;;-1.43;100.00
22047;BME280;11187;49.412;20.956;2023-12-20T04:52:05;94515.19;;;-1.46;100.00
22047;BME280;11187;49.412;20.956;2023-12-20T04:54:51;94539.47;;;-1.45;100.00
22047;BME280;11187;49.412;20.956;2023-12-20T04:57:45;94537.84;;;-1.43;100.00
22047;BME280;11187;49.412;20.956;2023-12-20T05:00:39;94528.56;;;-1.45;100.00
22047;BME280;11187;49.412;20.956;2023-12-20T05:03:13;94537.78;;;-1.46;100.00
22047;BME280;11187;49.412;20.956;2023-12-20T05:06:09;94520.19;;;-1.46;100.00
22047;BME280;11187;49.412;20.956;2023-12-20T05:08:42;94515.19;;;-1.46;100.00
22047;BME280;11187;49.412;20.956;2023-12-20T05:11:35;94527.69;;;-1.49;100.00
22047;BME280;11187;49.412;20.956;2023-12-20T05:14:29;94523.47;;;-1.52;100.00
22047;BME280;11187;49.412;20.956;2023-12-20T05:17:23;94505.88;;;-1.50;100.00
22047;BME280;11187;49.412;20.956;2023-12-20T05:20:17;94500.03;;;-1.51;100.00
22047;BME280;11187;49.412;20.956;2023-12-20T05:23:11;94499.16;;;-1.53;100.00
22047;BME280;11187;49.412;20.956;2023-12-20T05:25:46;94502.47;;;-1.55;100.00
22047;BME280;11187;49.412;20.956;2023-12-20T05:28:33;94509.19;;;-1.54;100.00
22047;BME280;11187;49.412;20.956;2023-12-20T05:31:07;94502.41;;;-1.57;100.00
22047;BME280;11187;49.412;20.956;2023-12-20T05:34:01;94505.72;;;-1.61;100.00
22047;BME280;11187;49.412;20.956;2023-12-20T05:36:58;94512.31;;;-1.66;100.00
22047;BME280;11187;49.412;20.956;2023-12-20T05:39:32;94508.16;;;-1.65;100.00
22047;BME280;11187;49.412;20.956;2023-12-20T05:42:19;94494.81;;;-1.61;100.00
22047;BME280;11187;49.412;20.956;2023-12-20T05:44:53;94503.22;;;-1.61;100.00
22047;BME280;11187;49.412;20.956;2023-12-20T05:47:39;94505.78;;;-1.58;100.00
22047;BME280;11187;49.412;20.956;2023-12-20T05:50:14;94494.91;;;-1.57;100.00
22047;BME280;11187;49.412;20.956;2023-12-20T05:53:02;94502.41;;;-1.58;100.00
22047;BME280;11187;49.412;20.956;2023-12-20T05:55:36;94496.56;;;-1.57;100.00
22047;BME280;11187;49.412;20.956;2023-12-20T05:58:23;94493.22;;;-1.58;100.00
22047;BME280;11187;49.412;20.956;2023-12-20T06:00:57;94484.84;;;-1.58;100.00
22047;BME280;11187;49.412;20.956;2023-12-20T06:03:51;94489.03;;;-1.57;100.00
22047;BME280;11187;49.412;20.956;2023-12-20T06:06:25;94478.06;;;-1.62;100.00
22047;BME280;11187;49.412;20.956;2023-12-20T06:09:19;94473.06;;;-1.62;100.00
22047;BME280;11187;49.412;20.956;2023-12-20T06:12:13;94483.13;;;-1.59;100.00
22047;BME280;11187;49.412;20.956;2023-12-20T06:14:47;94481.50;;;-1.57;100.00
22047;BME280;11187;49.412;20.956;2023-12-20T06:17:33;94484.84;;;-1.58;100.00
22047;BME280;11187;49.412;20.956;2023-12-20T06:20:09;94487.38;;;-1.57;100.00
22047;BME280;11187;49.412;20.956;2023-12-20T06:22:55;94474.78;;;-1.60;100.00
22047;BME280;11187;49.412;20.956;2023-12-20T06:25:29;94484.81;;;-1.60;100.00
22047;BME280;11187;49.412;20.956;2023-12-20T06:28:15;94484.00;;;-1.59;100.00
22047;BME280;11187;49.412;20.956;2023-12-20T06:31:09;94484.84;;;-1.58;100.00
22047;BME280;11187;49.412;20.956;2023-12-20T06:34:03;94481.50;;;-1.57;100.00
22047;BME280;11187;49.412;20.956;2023-12-20T06:36:57;94476.47;;;-1.57;100.00
22047;BME280;11187;49.412;20.956;2023-12-20T06:39:31;94479.00;;;-1.57;100.00
22047;BME280;11187;49.412;20.956;2023-12-20T06:42:18;94474.06;;;-1.54;100.00
22047;BME280;11187;49.412;20.956;2023-12-20T06:44:51;94477.44;;;-1.51;100.00
22047;BME280;11187;49.412;20.956;2023-12-20T06:47:38;94477.53;;;-1.46;100.00
22047;BME280;11187;49.412;20.956;2023-12-20T06:50:11;94475.84;;;-1.45;100.00
22047;BME280;11187;49.412;20.956;2023-12-20T06:53:06;94466.63;;;-1.47;100.00
22047;BME280;11187;49.412;20.956;2023-12-20T06:55:59;94472.50;;;-1.46;100.00
22047;BME280;11187;49.412;20.956;2023-12-20T06:58:58;94483.38;;;-1.47;100.00
22047;BME280;11187;49.412;20.956;2023-12-20T07:01:32;94486.75;;;-1.43;100.00
22047;BME280;11187;49.412;20.956;2023-12-20T07:04:19;94496.84;;;-1.42;100.00
22047;BME280;11187;49.412;20.956;2023-12-20T07:06:54;94492.66;;;-1.43;100.00
22047;BME280;11187;49.412;20.956;2023-12-20T07:09:47;94481.81;;;-1.40;100.00
22047;BME280;11187;49.412;20.956;2023-12-20T07:12:41;94482.72;;;-1.35;100.00
22047;BME280;11187;49.412;20.956;2023-12-20T07:15:15;94477.75;;;-1.32;100.00
22047;BME280;11187;49.412;20.956;2023-12-20T07:18:04;94484.50;;;-1.28;100.00
22047;BME280;11187;49.412;20.956;2023-12-20T07:20:39;94464.47;;;-1.27;100.00
22047;BME280;11187;49.412;20.956;2023-12-20T07:23:25;94462.78;;;-1.26;100.00
22047;BME280;11187;49.412;20.956;2023-12-20T07:25:59;94443.53;;;-1.26;100.00
22047;BME280;11187;49.412;20.956;2023-12-20T07:28:52;94437.72;;;-1.23;100.00
22047;BME280;11187;49.412;20.956;2023-12-20T07:31:26;94451.19;;;-1.19;100.00
22047;BME280;11187;49.412;20.956;2023-12-20T07:34:13;94452.00;;;-1.19;100.00
22047;BME280;11187;49.412;20.956;2023-12-20T07:36:49;94452.88;;;-1.17;100.00
22047;BME280;11187;49.412;20.956;2023-12-20T07:39:42;94449.53;;;-1.17;100.00
22047;BME280;11187;49.412;20.956;2023-12-20T07:42:16;94448.69;;;-1.18;100.00
22047;BME280;11187;49.412;20.956;2023-12-20T07:45:09;94442.88;;;-1.14;100.00
22047;BME280;11187;49.412;20.956;2023-12-20T07:47:53;94446.25;;;-1.13;100.00
22047;BME280;11187;49.412;20.956;2023-12-20T07:50:33;94442.13;;;-1.08;100.00
22047;BME280;11187;49.412;20.956;2023-12-20T07:53:12;94437.16;;;-1.05;100.00
22047;BME280;11187;49.412;20.956;2023-12-20T07:55:59;94435.56;;;-1.00;100.00
22047;BME280;11187;49.412;20.956;2023-12-20T07:58:53;94439.81;;;-0.94;100.00
22047;BME280;11187;49.412;20.956;2023-12-20T08:01:27;94427.28;;;-0.93;100.00
22047;BME280;11187;49.412;20.956;2023-12-20T08:04:20;94429.88;;;-0.88;100.00
22047;BME280;11187;49.412;20.956;2023-12-20T08:07:14;94428.22;;;-0.86;100.00
22047;BME280;11187;49.412;20.956;2023-12-20T08:09:48;94415.66;;;-0.86;100.00
22047;BME280;11187;49.412;20.956;2023-12-20T08:12:43;94411.47;;;-0.86;100.00
22047;BME280;11187;49.412;20.956;2023-12-20T08:15:17;94405.66;;;-0.83;100.00
22047;BME280;11187;49.412;20.956;2023-12-20T08:18:10;94403.16;;;-0.81;100.00
22047;BME280;11187;49.412;20.956;2023-12-20T08:20:44;94414.91;;;-0.79;100.00
22047;BME280;11187;49.412;20.956;2023-12-20T08:23:33;94409.13;;;-0.73;100.00
22047;BME280;11187;49.412;20.956;2023-12-20T08:26:07;94407.47;;;-0.71;100.00
22047;BME280;11187;49.412;20.956;2023-12-20T08:28:54;94403.34;;;-0.68;100.00
22047;BME280;11187;49.412;20.956;2023-12-20T08:31:28;94409.22;;;-0.67;100.00
22047;BME280;11187;49.412;20.956;2023-12-20T08:34:22;94397.44;;;-0.68;100.00
22047;BME280;11187;49.412;20.956;2023-12-20T08:36:56;94426.00;;;-0.65;100.00
22047;BME280;11187;49.412;20.956;2023-12-20T08:39:44;94400.88;;;-0.63;100.00
22047;BME280;11187;49.412;20.956;2023-12-20T08:42:17;94420.97;;;-0.65;100.00
22047;BME280;11187;49.412;20.956;2023-12-20T08:45:11;94396.66;;;-0.64;100.00
22047;BME280;11187;49.412;20.956;2023-12-20T08:48:05;94409.25;;;-0.64;100.00
22047;BME280;11187;49.412;20.956;2023-12-20T08:50:59;94401.72;;;-0.63;100.00
22047;BME280;11187;49.412;20.956;2023-12-20T08:53:56;94390.03;;;-0.60;100.00
22047;BME280;11187;49.412;20.956;2023-12-20T08:56:29;94380.81;;;-0.57;100.00
22047;BME280;11187;49.412;20.956;2023-12-20T08:59:16;94386.78;;;-0.50;100.00
22047;BME280;11187;49.412;20.956;2023-12-20T09:01:49;94371.78;;;-0.44;100.00
22047;BME280;11187;49.412;20.956;2023-12-20T09:04:35;94376.00;;;-0.42;100.00
22047;BME280;11187;49.412;20.956;2023-12-20T09:07:23;94381.06;;;-0.38;100.00
22047;BME280;11187;49.412;20.956;2023-12-20T09:10:20;94379.41;;;-0.35;100.00
22047;BME280;11187;49.412;20.956;2023-12-20T09:12:55;94376.09;;;-0.34;100.00
22047;BME280;11187;49.412;20.956;2023-12-20T09:15:44;94371.06;;;-0.32;100.00
22047;BME280;11187;49.412;20.956;2023-12-20T09:18:17;94370.28;;;-0.25;100.00
22047;BME280;11187;49.412;20.956;2023-12-20T09:21:11;94377.09;;;-0.18;100.00
22047;BME280;11187;49.412;20.956;2023-12-20T09:23:44;94381.34;;;-0.12;100.00
22047;BME280;11187;49.412;20.956;2023-12-20T09:26:31;94365.50;;;-0.07;100.00
22047;BME280;11187;49.412;20.956;2023-12-20T09:29:04;94370.53;;;-0.04;100.00
22047;BME280;11187;49.412;20.956;2023-12-20T09:32:02;94366.41;;;0.00;100.00
22047;BME280;11187;49.412;20.956;2023-12-20T09:34:35;94347.97;;;0.06;100.00
22047;BME280;11187;49.412;20.956;2023-12-20T09:37:29;94355.59;;;0.13;100.00
22047;BME280;11187;49.412;20.956;2023-12-20T09:40:26;94337.22;;;0.20;100.00
22047;BME280;11187;49.412;20.956;2023-12-20T09:43:24;94356.56;;;0.29;100.00
22047;BME280;11187;49.412;20.956;2023-12-20T09:46:22;94349.94;;;0.37;100.00
22047;BME280;11187;49.412;20.956;2023-12-20T09:49:19;94340.78;;;0.49;100.00
22047;BME280;11187;49.412;20.956;2023-12-20T09:51:54;94340.03;;;0.60;100.00
22047;BME280;11187;49.412;20.956;2023-12-20T09:54:41;94329.16;;;0.66;100.00
22047;BME280;11187;49.412;20.956;2023-12-20T09:57:16;94340.94;;;0.72;100.00
22047;BME280;11187;49.412;20.956;2023-12-20T10:00:10;94317.50;;;0.80;100.00
22047;BME280;11187;49.412;20.956;2023-12-20T10:02:56;94321.69;;;0.80;100.00
22047;BME280;11187;49.412;20.956;2023-12-20T10:05:44;94331.75;;;0.75;100.00
22047;BME280;11187;49.412;20.956;2023-12-20T10:08:17;94331.75;;;0.81;100.00
22047;BME280;11187;49.412;20.956;2023-12-20T10:11:07;94320.97;;;1.04;100.00
22047;BME280;11187;49.412;20.956;2023-12-20T10:13:41;94319.31;;;1.04;100.00
22047;BME280;11187;49.412;20.956;2023-12-20T10:16:35;94309.19;;;1.01;100.00
22047;BME280;11187;49.412;20.956;2023-12-20T10:19:08;94310.13;;;1.14;100.00
22047;BME280;11187;49.412;20.956;2023-12-20T10:22:04;94294.13;;;1.08;100.00
22047;BME280;11187;49.412;20.956;2023-12-20T10:24:39;94285.69;;;1.04;100.00
22047;BME280;11187;49.412;20.956;2023-12-20T10:27:27;94308.38;;;1.02;100.00
22047;BME280;11187;49.412;20.956;2023-12-20T10:30:07;94308.38;;;1.04;100.00
22047;BME280;11187;49.412;20.956;2023-12-20T10:32:48;94305.03;;;1.07;100.00
22047;BME280;11187;49.412;20.956;2023-12-20T10:35:28;94306.75;;;1.12;100.00
22047;BME280;11187;49.412;20.956;2023-12-20T10:38:08;94303.41;;;1.16;100.00
22047;BME280;11187;49.412;20.956;2023-12-20T10:40:53;94302.59;;;1.27;100.00
22047;BME280;11187;49.412;20.956;2023-12-20T10:43:41;94304.28;;;1.31;100.00
22047;BME280;11187;49.412;20.956;2023-12-20T10:46:15;94290.03;;;1.40;100.00
22047;BME280;11187;49.412;20.956;2023-12-20T10:49:04;94290.06;;;1.46;100.00
22047;BME280;11187;49.412;20.956;2023-12-20T10:51:38;94291.72;;;1.48;100.00
22047;BME280;11187;49.412;20.956;2023-12-20T10:54:25;94285.88;;;1.52;100.00
22047;BME280;11187;49.412;20.956;2023-12-20T10:56:58;94294.25;;;1.52;100.00
22047;BME280;11187;49.412;20.956;2023-12-20T10:59:54;94290.06;;;1.54;100.00
22047;BME280;11187;49.412;20.956;2023-12-20T11:02:49;94279.16;;;1.51;100.00
22047;BME280;11187;49.412;20.956;2023-12-20T11:05:34;94276.63;;;1.49;100.00
22047;BME280;11187;49.412;20.956;2023-12-20T11:11:38;94260.66;;;1.49;100.00
22047;BME280;11187;49.412;20.956;2023-12-20T11:17:11;94261.50;;;1.51;100.00
22047;BME280;11187;49.412;20.956;2023-12-20T11:20:07;94257.28;;;1.50;100.00
22047;BME280;11187;49.412;20.956;2023-12-20T11:22:52;94262.31;;;1.50;100.00
22047;BME280;11187;49.412;20.956;2023-12-20T11:25:54;94241.28;;;1.49;100.00
22047;BME280;11187;49.412;20.956;2023-12-20T11:28:49;94255.59;;;1.52;100.00
22047;BME280;11187;49.412;20.956;2023-12-20T11:31:22;94255.59;;;1.53;100.00
22047;BME280;11187;49.412;20.956;2023-12-20T11:34:17;94249.72;;;1.54;100.00
22047;BME280;11187;49.412;20.956;2023-12-20T11:36:57;94252.22;;;1.54;100.00
22047;BME280;11187;49.412;20.956;2023-12-20T11:40:17;94244.66;;;1.54;100.00
22047;BME280;11187;49.412;20.956;2023-12-20T11:42:51;94248.88;;;1.55;100.00
22047;BME280;11187;49.412;20.956;2023-12-20T11:45:49;94246.38;;;1.55;100.00
22047;BME280;11187;49.412;20.956;2023-12-20T11:48:23;94244.69;;;1.56;100.00
22047;BME280;11187;49.412;20.956;2023-12-20T11:51:18;94246.38;;;1.55;100.00
22047;BME280;11187;49.412;20.956;2023-12-20T11:54:13;94240.50;;;1.55;100.00
22047;BME280;11187;49.412;20.956;2023-12-20T11:56:47;94243.84;;;1.54;100.00
22047;BME280;11187;49.412;20.956;2023-12-20T11:59:34;94241.28;;;1.52;100.00
22047;BME280;11187;49.412;20.956;2023-12-20T12:02:07;94232.91;;;1.49;100.00
22047;BME280;11187;49.412;20.956;2023-12-20T12:05:01;94246.34;;;1.48;100.00
22047;BME280;11187;49.412;20.956;2023-12-20T12:07:35;94241.31;;;1.46;100.00
22047;BME280;11187;49.412;20.956;2023-12-20T12:10:29;94233.72;;;1.44;100.00
22047;BME280;11187;49.412;20.956;2023-12-20T12:13:02;94227.84;;;1.42;100.00
22047;BME280;11187;49.412;20.956;2023-12-20T12:15:57;94225.31;;;1.42;100.00
22047;BME280;11187;49.412;20.956;2023-12-20T12:18:57;94230.34;;;1.42;100.00
22047;BME280;11187;49.412;20.956;2023-12-20T12:21:30;94238.78;;;1.41;100.00
22047;BME280;11187;49.412;20.956;2023-12-20T12:24:20;94230.38;;;1.41;100.00
22047;BME280;11187;49.412;20.956;2023-12-20T12:26:57;94241.28;;;1.41;100.00
22047;BME280;11187;49.412;20.956;2023-12-20T12:30:02;94237.94;;;1.41;100.00
22047;BME280;11187;49.412;20.956;2023-12-20T12:32:57;94235.41;;;1.39;100.00
22047;BME280;11187;49.412;20.956;2023-12-20T12:35:51;94232.88;;;1.39;100.00
22047;BME280;11187;49.412;20.956;2023-12-20T12:38:31;94233.69;;;1.38;100.00
22047;BME280;11187;49.412;20.956;2023-12-20T12:41:18;94229.53;;;1.39;100.00
22047;BME280;11187;49.412;20.956;2023-12-20T12:43:58;94226.13;;;1.38;100.00
22047;BME280;11187;49.412;20.956;2023-12-20T12:46:52;94226.97;;;1.37;100.00
22047;BME280;11187;49.412;20.956;2023-12-20T12:49:33;94223.63;;;1.37;100.00
22047;BME280;11187;49.412;20.956;2023-12-20T12:52:14;94235.41;;;1.36;100.00
22047;BME280;11187;49.412;20.956;2023-12-20T12:54:54;94229.50;;;1.37;100.00
22047;BME280;11187;49.412;20.956;2023-12-20T12:57:34;94228.69;;;1.37;100.00
22047;BME280;11187;49.412;20.956;2023-12-20T13:00:14;94224.47;;;1.37;100.00
22047;BME280;11187;49.412;20.956;2023-12-20T13:02:55;94225.31;;;1.38;100.00
22047;BME280;11187;49.412;20.956;2023-12-20T13:05:35;94235.41;;;1.39;100.00
22047;BME280;11187;49.412;20.956;2023-12-20T13:08:22;94232.03;;;1.39;100.00
22047;BME280;11187;49.412;20.956;2023-12-20T13:11:02;94232.88;;;1.39;100.00
22047;BME280;11187;49.412;20.956;2023-12-20T13:13:42;94222.78;;;1.39;100.00
22047;BME280;11187;49.412;20.956;2023-12-20T13:16:22;94222.78;;;1.39;100.00
22047;BME280;11187;49.412;20.956;2023-12-20T13:19:09;94228.66;;;1.40;100.00
22047;BME280;11187;49.412;20.956;2023-12-20T13:21:43;94230.34;;;1.39;100.00
22047;BME280;11187;49.412;20.956;2023-12-20T13:24:30;94234.56;;;1.39;100.00
22047;BME280;11187;49.412;20.956;2023-12-20T13:27:10;94242.97;;;1.39;100.00
22047;BME280;11187;49.412;20.956;2023-12-20T13:29:58;94241.28;;;1.40;100.00
22047;BME280;11187;49.412;20.956;2023-12-20T13:32:31;94242.97;;;1.39;100.00
22047;BME280;11187;49.412;20.956;2023-12-20T13:35:18;94252.19;;;1.37;100.00
22047;BME280;11187;49.412;20.956;2023-12-20T13:38:00;94258.09;;;1.36;100.00
22047;BME280;11187;49.412;20.956;2023-12-20T13:40:41;94263.97;;;1.35;100.00
22047;BME280;11187;49.412;20.956;2023-12-20T13:43:21;94268.19;;;1.36;100.00
22047;BME280;11187;49.412;20.956;2023-12-20T13:46:08;94261.47;;;1.37;100.00
22047;BME280;11187;49.412;20.956;2023-12-20T13:48:41;94258.09;;;1.36;100.00
22047;BME280;11187;49.412;20.956;2023-12-20T13:51:28;94263.97;;;1.37;100.00
22047;BME280;11187;49.412;20.956;2023-12-20T13:54:02;94253.88;;;1.35;100.00
22047;BME280;11187;49.412;20.956;2023-12-20T13:56:51;94255.56;;;1.35;100.00
22047;BME280;11187;49.412;20.956;2023-12-20T13:59:58;94258.91;;;1.34;100.00
22047;BME280;11187;49.412;20.956;2023-12-20T14:02:31;94250.50;;;1.33;100.00
22047;BME280;11187;49.412;20.956;2023-12-20T14:05:25;94254.69;;;1.31;100.00
22047;BME280;11187;49.412;20.956;2023-12-20T14:07:59;94245.44;;;1.29;100.00
22047;BME280;11187;49.412;20.956;2023-12-20T14:10:53;94249.66;;;1.28;100.00
22047;BME280;11187;49.412;20.956;2023-12-20T14:13:48;94265.63;;;1.25;100.00
22047;BME280;11187;49.412;20.956;2023-12-20T14:16:21;94275.72;;;1.25;100.00